sensor_id;sensor_type;location;lat;lon;timestamp;temperature;humidity
2543;DHT22;1116;51.502;7.414;2023-10-09T00:01:04;16.40;99.90
2543;DHT22;1116;51.502;7.414;2023-10-09T00:03:41;16.40;99.90
2543;DHT22;1116;51.502;7.414;2023-10-09T00:06:11;16.40;99.90
2543;DHT22;1116;51.502;7.414;2023-10-09T00:08:45;16.40;99.90
2543;DHT22;1116;51.502;7.414;2023-10-09T00:11:18;16.50;99.90
2543;DHT22;1116;51.502;7.414;2023-10-09T00:13:48;16.80;99.90
2543;DHT22;1116;51.502;7.414;2023-10-09T00:16:25;16.50;99.90
2543;DHT22;1116;51.502;7.414;2023-10-09T00:19:05;16.60;99.90
2543;DHT22;1116;51.502;7.414;2023-10-09T00:21:44;16.60;99.90
2543;DHT22;1116;51.502;7.414;2023-10-09T00:24:17;16.60;99.90
2543;DHT22;1116;51.502;7.414;2023-10-09T00:26:52;16.60;99.90
2543;DHT22;1116;51.502;7.414;2023-10-09T00:29:23;16.60;99.90
2543;DHT22;1116;51.502;7.414;2023-10-09T00:31:54;16.60;99.90
2543;DHT22;1116;51.502;7.414;2023-10-09T00:34:32;16.60;99.90
2543;DHT22;1116;51.502;7.414;2023-10-09T00:37:07;16.70;99.90
2543;DHT22;1116;51.502;7.414;2023-10-09T00:39:46;16.70;99.90
2543;DHT22;1116;51.502;7.414;2023-10-09T00:42:22;16.70;99.90
2543;DHT22;1116;51.502;7.414;2023-10-09T00:44:57;16.70;99.90
2543;DHT22;1116;51.502;7.414;2023-10-09T00:47:30;16.80;99.90
2543;DHT22;1116;51.502;7.414;2023-10-09T00:50:09;16.80;99.90
2543;DHT22;1116;51.502;7.414;2023-10-09T00:52:51;16.90;99.90
2543;DHT22;1116;51.502;7.414;2023-10-09T00:55:32;16.90;99.90
2543;DHT22;1116;51.502;7.414;2023-10-09T00:58:12;16.90;99.90
2543;DHT22;1116;51.502;7.414;2023-10-09T01:00:50;16.90;99.90
2543;DHT22;1116;51.502;7.414;2023-10-09T01:03:22;17.00;99.90
2543;DHT22;1116;51.502;7.414;2023-10-09T01:05:57;17.00;99.90
2543;DHT22;1116;51.502;7.414;2023-10-09T01:08:42;17.00;99.90
2543;DHT22;1116;51.502;7.414;2023-10-09T01:11:23;17.00;99.90
2543;DHT22;1116;51.502;7.414;2023-10-09T01:13:56;17.00;99.90
2543;DHT22;1116;51.502;7.414;2023-10-09T01:16:39;17.00;99.90
2543;DHT22;1116;51.502;7.414;2023-10-09T01:19:11;17.00;99.90
2543;DHT22;1116;51.502;7.414;2023-10-09T01:21:47;17.00;99.90
2543;DHT22;1116;51.502;7.414;2023-10-09T01:24:21;17.10;99.90
2543;DHT22;1116;51.502;7.414;2023-10-09T01:26:53;17.10;99.90
2543;DHT22;1116;51.502;7.414;2023-10-09T01:29:26;17.10;99.90
2543;DHT22;1116;51.502;7.414;2023-10-09T01:31:57;17.10;99.90
2543;DHT22;1116;51.502;7.414;2023-10-09T01:34:29;17.20;99.90
2543;DHT22;1116;51.502;7.414;2023-10-09T01:37:10;17.20;99.90
2543;DHT22;1116;51.502;7.414;2023-10-09T01:39:49;17.20;99.90
2543;DHT22;1116;51.502;7.414;2023-10-09T01:42:20;17.20;99.90
2543;DHT22;1116;51.502;7.414;2023-10-09T01:45:02;17.10;99.90
2543;DHT22;1116;51.502;7.414;2023-10-09T01:47:43;17.10;99.90
2543;DHT22;1116;51.502;7.414;2023-10-09T01:50:19;17.20;99.90
2543;DHT22;1116;51.502;7.414;2023-10-09T01:52:52;17.10;99.90
2543;DHT22;1116;51.502;7.414;2023-10-09T01:55:24;17.10;99.90
2543;DHT22;1116;51.502;7.414;2023-10-09T01:58:03;17.10;99.90
2543;DHT22;1116;51.502;7.414;2023-10-09T02:00:43;17.10;99.90
2543;DHT22;1116;51.502;7.414;2023-10-09T02:03:16;17.20;99.90
2543;DHT22;1116;51.502;7.414;2023-10-09T02:05:54;17.20;99.90
2543;DHT22;1116;51.502;7.414;2023-10-09T02:08:44;17.20;99.90
2543;DHT22;1116;51.502;7.414;2023-10-09T02:11:19;17.10;99.90
2543;DHT22;1116;51.502;7.414;2023-10-09T02:14:05;17.10;99.90
2543;DHT22;1116;51.502;7.414;2023-10-09T02:16:47;17.10;99.90
2543;DHT22;1116;51.502;7.414;2023-10-09T02:19:31;17.10;99.90
2543;DHT22;1116;51.502;7.414;2023-10-09T02:22:02;17.10;99.90
2543;DHT22;1116;51.502;7.414;2023-10-09T02:24:40;17.10;99.90
2543;DHT22;1116;51.502;7.414;2023-10-09T02:27:27;17.10;99.90
2543;DHT22;1116;51.502;7.414;2023-10-09T02:30:13;17.10;99.40
2543;DHT22;1116;51.502;7.414;2023-10-09T02:32:54;17.10;97.60
2543;DHT22;1116;51.502;7.414;2023-10-09T02:35:36;17.10;96.70
2543;DHT22;1116;51.502;7.414;2023-10-09T02:38:10;17.10;95.80
2543;DHT22;1116;51.502;7.414;2023-10-09T02:40:41;17.20;94.70
2543;DHT22;1116;51.502;7.414;2023-10-09T02:43:35;17.20;93.70
2543;DHT22;1116;51.502;7.414;2023-10-09T02:46:11;17.20;94.00
2543;DHT22;1116;51.502;7.414;2023-10-09T02:48:45;17.20;93.30
2543;DHT22;1116;51.502;7.414;2023-10-09T02:51:18;17.20;92.50
2543;DHT22;1116;51.502;7.414;2023-10-09T02:54:01;17.20;91.90
2543;DHT22;1116;51.502;7.414;2023-10-09T02:56:46;17.20;90.30
2543;DHT22;1116;51.502;7.414;2023-10-09T02:59:25;17.20;90.30
2543;DHT22;1116;51.502;7.414;2023-10-09T03:01:57;17.30;89.20
2543;DHT22;1116;51.502;7.414;2023-10-09T03:04:27;17.20;88.50
2543;DHT22;1116;51.502;7.414;2023-10-09T03:06:58;17.20;88.20
2543;DHT22;1116;51.502;7.414;2023-10-09T03:09:30;17.20;87.10
2543;DHT22;1116;51.502;7.414;2023-10-09T03:12:03;17.20;86.60
2543;DHT22;1116;51.502;7.414;2023-10-09T03:14:40;17.20;85.10
2543;DHT22;1116;51.502;7.414;2023-10-09T03:17:10;17.20;84.20
2543;DHT22;1116;51.502;7.414;2023-10-09T03:19:41;17.30;84.10
2543;DHT22;1116;51.502;7.414;2023-10-09T03:22:12;17.30;82.00
2543;DHT22;1116;51.502;7.414;2023-10-09T03:24:42;17.30;81.50
2543;DHT22;1116;51.502;7.414;2023-10-09T03:27:17;17.30;81.30
2543;DHT22;1116;51.502;7.414;2023-10-09T03:29:49;17.30;80.10
2543;DHT22;1116;51.502;7.414;2023-10-09T03:32:21;17.30;79.70
2543;DHT22;1116;51.502;7.414;2023-10-09T03:34:51;17.30;79.40
2543;DHT22;1116;51.502;7.414;2023-10-09T03:37:22;17.30;78.70
2543;DHT22;1116;51.502;7.414;2023-10-09T03:40:01;17.40;77.30
2543;DHT22;1116;51.502;7.414;2023-10-09T03:42:34;17.40;77.50
2543;DHT22;1116;51.502;7.414;2023-10-09T03:45:11;17.30;75.50
2543;DHT22;1116;51.502;7.414;2023-10-09T03:47:52;17.30;76.10
2543;DHT22;1116;51.502;7.414;2023-10-09T03:50:24;17.30;76.30
2543;DHT22;1116;51.502;7.414;2023-10-09T03:53:03;17.30;76.50
2543;DHT22;1116;51.502;7.414;2023-10-09T03:55:38;17.30;75.90
2543;DHT22;1116;51.502;7.414;2023-10-09T03:58:09;17.30;77.20
2543;DHT22;1116;51.502;7.414;2023-10-09T04:00:44;17.30;76.20
2543;DHT22;1116;51.502;7.414;2023-10-09T04:03:16;17.30;75.30
2543;DHT22;1116;51.502;7.414;2023-10-09T04:05:47;17.30;75.10
2543;DHT22;1116;51.502;7.414;2023-10-09T04:08:20;17.30;76.00
2543;DHT22;1116;51.502;7.414;2023-10-09T04:10:56;17.30;75.80
2543;DHT22;1116;51.502;7.414;2023-10-09T04:13:33;17.30;75.20
2543;DHT22;1116;51.502;7.414;2023-10-09T04:16:09;17.30;75.20
2543;DHT22;1116;51.502;7.414;2023-10-09T04:18:53;17.30;75.90
2543;DHT22;1116;51.502;7.414;2023-10-09T04:21:23;17.30;75.10
2543;DHT22;1116;51.502;7.414;2023-10-09T04:24:04;17.30;75.50
2543;DHT22;1116;51.502;7.414;2023-10-09T04:26:56;17.30;75.10
2543;DHT22;1116;51.502;7.414;2023-10-09T04:29:29;17.30;73.80
2543;DHT22;1116;51.502;7.414;2023-10-09T04:32:13;17.20;74.00
2543;DHT22;1116;51.502;7.414;2023-10-09T04:34:45;17.20;74.60
2543;DHT22;1116;51.502;7.414;2023-10-09T04:37:24;17.30;74.30
2543;DHT22;1116;51.502;7.414;2023-10-09T04:40:04;17.30;72.40
2543;DHT22;1116;51.502;7.414;2023-10-09T04:43:00;17.30;72.30
2543;DHT22;1116;51.502;7.414;2023-10-09T04:45:36;17.30;70.90
2543;DHT22;1116;51.502;7.414;2023-10-09T04:48:23;17.30;70.40
2543;DHT22;1116;51.502;7.414;2023-10-09T04:51:06;17.30;70.70
2543;DHT22;1116;51.502;7.414;2023-10-09T04:53:49;17.30;69.90
2543;DHT22;1116;51.502;7.414;2023-10-09T04:56:27;17.30;69.20
2543;DHT22;1116;51.502;7.414;2023-10-09T04:59:00;17.30;66.00
2543;DHT22;1116;51.502;7.414;2023-10-09T05:01:35;17.30;62.50
2543;DHT22;1116;51.502;7.414;2023-10-09T05:04:14;17.30;62.10
2543;DHT22;1116;51.502;7.414;2023-10-09T05:07:06;17.30;61.20
2543;DHT22;1116;51.502;7.414;2023-10-09T05:10:15;17.30;61.20
2543;DHT22;1116;51.502;7.414;2023-10-09T05:12:51;17.30;61.10
2543;DHT22;1116;51.502;7.414;2023-10-09T05:15:24;17.30;60.80
2543;DHT22;1116;51.502;7.414;2023-10-09T05:17:57;17.30;60.30
2543;DHT22;1116;51.502;7.414;2023-10-09T05:20:26;17.30;60.40
2543;DHT22;1116;51.502;7.414;2023-10-09T05:23:09;17.30;60.20
2543;DHT22;1116;51.502;7.414;2023-10-09T05:25:53;17.30;60.60
2543;DHT22;1116;51.502;7.414;2023-10-09T05:28:20;17.30;60.80
2543;DHT22;1116;51.502;7.414;2023-10-09T05:30:58;17.30;60.40
2543;DHT22;1116;51.502;7.414;2023-10-09T05:33:34;17.30;60.50
2543;DHT22;1116;51.502;7.414;2023-10-09T05:36:08;17.30;60.50
2543;DHT22;1116;51.502;7.414;2023-10-09T05:38:59;17.30;61.00
2543;DHT22;1116;51.502;7.414;2023-10-09T05:41:45;17.30;60.80
2543;DHT22;1116;51.502;7.414;2023-10-09T05:44:15;17.30;61.10
2543;DHT22;1116;51.502;7.414;2023-10-09T05:46:57;17.30;61.60
2543;DHT22;1116;51.502;7.414;2023-10-09T05:49:39;17.30;61.00
2543;DHT22;1116;51.502;7.414;2023-10-09T05:52:25;17.30;60.70
2543;DHT22;1116;51.502;7.414;2023-10-09T05:54:59;17.30;60.30
2543;DHT22;1116;51.502;7.414;2023-10-09T05:57:41;17.30;60.60
2543;DHT22;1116;51.502;7.414;2023-10-09T06:00:26;17.30;61.20
2543;DHT22;1116;51.502;7.414;2023-10-09T06:03:09;17.30;61.10
2543;DHT22;1116;51.502;7.414;2023-10-09T06:05:52;17.30;60.80
2543;DHT22;1116;51.502;7.414;2023-10-09T06:08:35;17.30;61.70
2543;DHT22;1116;51.502;7.414;2023-10-09T06:11:37;17.30;61.20
2543;DHT22;1116;51.502;7.414;2023-10-09T06:14:08;17.30;61.00
2543;DHT22;1116;51.502;7.414;2023-10-09T06:16:50;17.30;61.70
2543;DHT22;1116;51.502;7.414;2023-10-09T06:19:29;17.30;61.70
2543;DHT22;1116;51.502;7.414;2023-10-09T06:22:07;17.30;61.70
2543;DHT22;1116;51.502;7.414;2023-10-09T06:25:09;17.30;61.70
2543;DHT22;1116;51.502;7.414;2023-10-09T06:27:45;17.30;61.20
2543;DHT22;1116;51.502;7.414;2023-10-09T06:30:24;17.30;61.30
2543;DHT22;1116;51.502;7.414;2023-10-09T06:32:55;17.30;61.70
2543;DHT22;1116;51.502;7.414;2023-10-09T06:35:25;17.30;62.20
2543;DHT22;1116;51.502;7.414;2023-10-09T06:38:00;17.30;61.90
2543;DHT22;1116;51.502;7.414;2023-10-09T06:41:00;17.40;61.00
2543;DHT22;1116;51.502;7.414;2023-10-09T06:43:42;17.40;60.60
2543;DHT22;1116;51.502;7.414;2023-10-09T06:46:20;17.40;60.20
2543;DHT22;1116;51.502;7.414;2023-10-09T06:49:02;17.30;60.50
2543;DHT22;1116;51.502;7.414;2023-10-09T06:51:44;17.30;60.30
2543;DHT22;1116;51.502;7.414;2023-10-09T06:54:14;17.40;60.60
2543;DHT22;1116;51.502;7.414;2023-10-09T06:56:46;17.50;60.90
2543;DHT22;1116;51.502;7.414;2023-10-09T06:59:31;17.50;59.80
2543;DHT22;1116;51.502;7.414;2023-10-09T07:02:31;17.50;59.30
2543;DHT22;1116;51.502;7.414;2023-10-09T07:05:13;17.60;59.10
2543;DHT22;1116;51.502;7.414;2023-10-09T07:07:44;17.60;59.10
2543;DHT22;1116;51.502;7.414;2023-10-09T07:10:24;17.70;59.10
2543;DHT22;1116;51.502;7.414;2023-10-09T07:13:09;17.60;59.10
2543;DHT22;1116;51.502;7.414;2023-10-09T07:15:42;17.70;59.60
2543;DHT22;1116;51.502;7.414;2023-10-09T07:18:24;17.70;59.20
2543;DHT22;1116;51.502;7.414;2023-10-09T07:21:13;17.70;59.10
2543;DHT22;1116;51.502;7.414;2023-10-09T07:23:55;17.70;59.10
2543;DHT22;1116;51.502;7.414;2023-10-09T07:26:41;17.70;59.10
2543;DHT22;1116;51.502;7.414;2023-10-09T07:29:25;17.80;59.20
2543;DHT22;1116;51.502;7.414;2023-10-09T07:31:55;17.70;59.10
2543;DHT22;1116;51.502;7.414;2023-10-09T07:34:39;17.80;59.20
2543;DHT22;1116;51.502;7.414;2023-10-09T07:37:27;17.80;59.20
2543;DHT22;1116;51.502;7.414;2023-10-09T07:39:58;17.80;59.20
2543;DHT22;1116;51.502;7.414;2023-10-09T07:42:34;17.80;59.20
2543;DHT22;1116;51.502;7.414;2023-10-09T07:45:13;17.80;59.20
2543;DHT22;1116;51.502;7.414;2023-10-09T07:47:56;17.80;59.20
2543;DHT22;1116;51.502;7.414;2023-10-09T07:50:39;17.80;59.20
2543;DHT22;1116;51.502;7.414;2023-10-09T07:53:08;17.80;59.20
2543;DHT22;1116;51.502;7.414;2023-10-09T07:55:56;17.90;59.20
2543;DHT22;1116;51.502;7.414;2023-10-09T07:58:33;17.90;58.70
2543;DHT22;1116;51.502;7.414;2023-10-09T08:01:16;17.90;58.50
2543;DHT22;1116;51.502;7.414;2023-10-09T08:03:50;17.90;58.20
2543;DHT22;1116;51.502;7.414;2023-10-09T08:06:32;17.90;58.40
2543;DHT22;1116;51.502;7.414;2023-10-09T08:09:29;18.00;58.00
2543;DHT22;1116;51.502;7.414;2023-10-09T08:12:15;18.00;59.40
2543;DHT22;1116;51.502;7.414;2023-10-09T08:14:57;18.10;58.50
2543;DHT22;1116;51.502;7.414;2023-10-09T08:17:52;18.10;57.60
2543;DHT22;1116;51.502;7.414;2023-10-09T08:20:22;18.10;58.60
2543;DHT22;1116;51.502;7.414;2023-10-09T08:22:55;18.10;57.20
2543;DHT22;1116;51.502;7.414;2023-10-09T08:25:24;18.20;57.40
2543;DHT22;1116;51.502;7.414;2023-10-09T08:28:00;18.20;57.40
2543;DHT22;1116;51.502;7.414;2023-10-09T08:30:43;18.30;57.60
2543;DHT22;1116;51.502;7.414;2023-10-09T08:33:33;18.30;57.30
2543;DHT22;1116;51.502;7.414;2023-10-09T08:36:12;18.20;56.40
2543;DHT22;1116;51.502;7.414;2023-10-09T08:38:50;18.20;56.30
2543;DHT22;1116;51.502;7.414;2023-10-09T08:41:25;18.20;57.00
2543;DHT22;1116;51.502;7.414;2023-10-09T08:43:57;18.20;58.20
2543;DHT22;1116;51.502;7.414;2023-10-09T08:46:31;18.20;57.70
2543;DHT22;1116;51.502;7.414;2023-10-09T08:49:06;18.20;58.40
2543;DHT22;1116;51.502;7.414;2023-10-09T08:51:37;18.20;57.50
2543;DHT22;1116;51.502;7.414;2023-10-09T08:54:09;18.20;57.60
2543;DHT22;1116;51.502;7.414;2023-10-09T08:56:42;18.20;57.90
2543;DHT22;1116;51.502;7.414;2023-10-09T08:59:18;18.20;58.10
2543;DHT22;1116;51.502;7.414;2023-10-09T09:01:49;18.20;57.70
2543;DHT22;1116;51.502;7.414;2023-10-09T09:04:38;18.10;57.90
2543;DHT22;1116;51.502;7.414;2023-10-09T09:07:24;18.20;59.00
2543;DHT22;1116;51.502;7.414;2023-10-09T09:09:57;18.10;59.60
2543;DHT22;1116;51.502;7.414;2023-10-09T09:12:31;18.20;60.30
2543;DHT22;1116;51.502;7.414;2023-10-09T09:15:13;18.30;59.80
2543;DHT22;1116;51.502;7.414;2023-10-09T09:17:49;18.40;60.70
2543;DHT22;1116;51.502;7.414;2023-10-09T09:20:23;18.60;59.00
2543;DHT22;1116;51.502;7.414;2023-10-09T09:23:00;18.60;56.90
2543;DHT22;1116;51.502;7.414;2023-10-09T09:25:42;18.60;56.50
2543;DHT22;1116;51.502;7.414;2023-10-09T09:28:15;18.60;55.80
2543;DHT22;1116;51.502;7.414;2023-10-09T09:30:49;18.70;55.10
2543;DHT22;1116;51.502;7.414;2023-10-09T09:33:27;18.70;55.30
2543;DHT22;1116;51.502;7.414;2023-10-09T09:36:13;18.80;55.10
2543;DHT22;1116;51.502;7.414;2023-10-09T09:38:43;18.90;54.50
2543;DHT22;1116;51.502;7.414;2023-10-09T09:41:18;19.00;53.40
2543;DHT22;1116;51.502;7.414;2023-10-09T09:43:53;19.00;52.50
2543;DHT22;1116;51.502;7.414;2023-10-09T09:46:28;19.20;51.40
2543;DHT22;1116;51.502;7.414;2023-10-09T09:49:04;19.20;50.40
2543;DHT22;1116;51.502;7.414;2023-10-09T09:51:46;19.20;49.30
2543;DHT22;1116;51.502;7.414;2023-10-09T09:54:16;19.30;49.60
2543;DHT22;1116;51.502;7.414;2023-10-09T09:56:53;19.40;48.80
2543;DHT22;1116;51.502;7.414;2023-10-09T09:59:26;19.40;46.80
2543;DHT22;1116;51.502;7.414;2023-10-09T10:01:58;19.40;46.10
2543;DHT22;1116;51.502;7.414;2023-10-09T10:04:38;19.40;47.00
2543;DHT22;1116;51.502;7.414;2023-10-09T10:07:12;19.50;46.60
2543;DHT22;1116;51.502;7.414;2023-10-09T10:09:44;19.50;46.60
2543;DHT22;1116;51.502;7.414;2023-10-09T10:15:58;19.60;44.30
2543;DHT22;1116;51.502;7.414;2023-10-09T10:18:32;19.60;45.10
2543;DHT22;1116;51.502;7.414;2023-10-09T10:21:14;19.60;44.80
2543;DHT22;1116;51.502;7.414;2023-10-09T10:23:58;19.80;44.90
2543;DHT22;1116;51.502;7.414;2023-10-09T10:26:37;19.90;42.90
2543;DHT22;1116;51.502;7.414;2023-10-09T10:29:14;19.90;40.70
2543;DHT22;1116;51.502;7.414;2023-10-09T10:31:57;19.80;41.20
2543;DHT22;1116;51.502;7.414;2023-10-09T10:34:52;19.80;40.50
2543;DHT22;1116;51.502;7.414;2023-10-09T10:37:35;19.70;40.40
2543;DHT22;1116;51.502;7.414;2023-10-09T10:40:22;19.80;41.50
2543;DHT22;1116;51.502;7.414;2023-10-09T10:43:05;19.90;40.60
2543;DHT22;1116;51.502;7.414;2023-10-09T10:45:40;19.90;39.30
2543;DHT22;1116;51.502;7.414;2023-10-09T10:48:13;19.80;40.40
2543;DHT22;1116;51.502;7.414;2023-10-09T10:50:56;19.80;40.50
2543;DHT22;1116;51.502;7.414;2023-10-09T10:53:28;19.70;40.60
2543;DHT22;1116;51.502;7.414;2023-10-09T10:56:04;19.80;40.60
2543;DHT22;1116;51.502;7.414;2023-10-09T10:58:52;19.90;40.50
2543;DHT22;1116;51.502;7.414;2023-10-09T11:01:39;20.10;40.70
2543;DHT22;1116;51.502;7.414;2023-10-09T11:04:22;20.10;37.90
2543;DHT22;1116;51.502;7.414;2023-10-09T11:07:06;20.10;39.40
2543;DHT22;1116;51.502;7.414;2023-10-09T11:09:43;20.10;37.20
2543;DHT22;1116;51.502;7.414;2023-10-09T11:12:29;20.10;36.30
2543;DHT22;1116;51.502;7.414;2023-10-09T11:15:08;20.50;35.70
2543;DHT22;1116;51.502;7.414;2023-10-09T11:18:00;20.10;35.10
2543;DHT22;1116;51.502;7.414;2023-10-09T11:20:33;20.10;34.10
2543;DHT22;1116;51.502;7.414;2023-10-09T11:23:06;20.10;34.40
2543;DHT22;1116;51.502;7.414;2023-10-09T11:25:45;20.20;34.40
2543;DHT22;1116;51.502;7.414;2023-10-09T11:28:37;20.20;34.30
2543;DHT22;1116;51.502;7.414;2023-10-09T11:31:15;20.20;32.90
2543;DHT22;1116;51.502;7.414;2023-10-09T11:33:46;20.30;32.70
2543;DHT22;1116;51.502;7.414;2023-10-09T11:36:20;20.30;33.20
2543;DHT22;1116;51.502;7.414;2023-10-09T11:38:58;20.40;33.20
2543;DHT22;1116;51.502;7.414;2023-10-09T11:41:44;20.50;33.70
2543;DHT22;1116;51.502;7.414;2023-10-09T11:44:34;20.50;32.20
2543;DHT22;1116;51.502;7.414;2023-10-09T11:47:02;20.50;34.30
2543;DHT22;1116;51.502;7.414;2023-10-09T11:49:50;20.60;33.40
2543;DHT22;1116;51.502;7.414;2023-10-09T11:52:30;20.70;33.10
2543;DHT22;1116;51.502;7.414;2023-10-09T11:55:06;20.80;34.20
2543;DHT22;1116;51.502;7.414;2023-10-09T11:57:34;20.90;32.50
2543;DHT22;1116;51.502;7.414;2023-10-09T12:00:08;20.90;30.20
2543;DHT22;1116;51.502;7.414;2023-10-09T12:02:55;20.70;30.40
2543;DHT22;1116;51.502;7.414;2023-10-09T12:05:35;20.80;31.40
2543;DHT22;1116;51.502;7.414;2023-10-09T12:08:10;20.80;30.50
2543;DHT22;1116;51.502;7.414;2023-10-09T12:10:42;20.70;30.40
2543;DHT22;1116;51.502;7.414;2023-10-09T12:13:14;20.50;30.30
2543;DHT22;1116;51.502;7.414;2023-10-09T12:15:47;20.60;30.30
2543;DHT22;1116;51.502;7.414;2023-10-09T12:18:20;20.60;31.80
2543;DHT22;1116;51.502;7.414;2023-10-09T12:20:51;20.60;30.40
2543;DHT22;1116;51.502;7.414;2023-10-09T12:23:30;20.60;30.40
2543;DHT22;1116;51.502;7.414;2023-10-09T12:26:03;20.60;30.40
2543;DHT22;1116;51.502;7.414;2023-10-09T12:28:33;20.50;30.20
2543;DHT22;1116;51.502;7.414;2023-10-09T12:31:05;20.50;30.30
2543;DHT22;1116;51.502;7.414;2023-10-09T12:33:35;20.50;30.30
2543;DHT22;1116;51.502;7.414;2023-10-09T12:36:11;20.50;30.20
2543;DHT22;1116;51.502;7.414;2023-10-09T12:38:47;20.50;30.30
2543;DHT22;1116;51.502;7.414;2023-10-09T12:41:20;20.60;31.40
2543;DHT22;1116;51.502;7.414;2023-10-09T12:43:56;20.60;31.90
2543;DHT22;1116;51.502;7.414;2023-10-09T12:46:29;21.20;30.90
2543;DHT22;1116;51.502;7.414;2023-10-09T12:49:05;20.60;30.40
2543;DHT22;1116;51.502;7.414;2023-10-09T12:51:36;20.70;31.00
2543;DHT22;1116;51.502;7.414;2023-10-09T12:54:07;20.70;29.70
2543;DHT22;1116;51.502;7.414;2023-10-09T12:56:38;20.60;30.40
2543;DHT22;1116;51.502;7.414;2023-10-09T12:59:08;20.70;30.50
2543;DHT22;1116;51.502;7.414;2023-10-09T13:01:45;20.80;30.50
2543;DHT22;1116;51.502;7.414;2023-10-09T13:04:19;20.80;30.50
2543;DHT22;1116;51.502;7.414;2023-10-09T13:06:51;20.70;29.10
2543;DHT22;1116;51.502;7.414;2023-10-09T13:09:21;20.70;30.00
2543;DHT22;1116;51.502;7.414;2023-10-09T13:12:00;20.80;30.50
2543;DHT22;1116;51.502;7.414;2023-10-09T13:14:32;20.80;28.60
2543;DHT22;1116;51.502;7.414;2023-10-09T13:17:05;20.70;29.70
2543;DHT22;1116;51.502;7.414;2023-10-09T13:19:37;20.70;29.60
2543;DHT22;1116;51.502;7.414;2023-10-09T13:22:07;20.70;30.40
2543;DHT22;1116;51.502;7.414;2023-10-09T13:24:40;20.80;30.60
2543;DHT22;1116;51.502;7.414;2023-10-09T13:27:10;20.80;30.60
2543;DHT22;1116;51.502;7.414;2023-10-09T13:29:45;20.80;29.90
2543;DHT22;1116;51.502;7.414;2023-10-09T13:32:17;20.80;29.50
2543;DHT22;1116;51.502;7.414;2023-10-09T13:34:47;21.20;30.10
2543;DHT22;1116;51.502;7.414;2023-10-09T13:37:17;20.90;29.90
2543;DHT22;1116;51.502;7.414;2023-10-09T13:39:49;21.00;30.70
2543;DHT22;1116;51.502;7.414;2023-10-09T13:42:23;21.00;29.30
2543;DHT22;1116;51.502;7.414;2023-10-09T13:44:54;20.90;28.70
2543;DHT22;1116;51.502;7.414;2023-10-09T13:47:27;20.90;28.40
2543;DHT22;1116;51.502;7.414;2023-10-09T13:49:59;20.90;29.60
2543;DHT22;1116;51.502;7.414;2023-10-09T13:52:29;20.90;27.80
2543;DHT22;1116;51.502;7.414;2023-10-09T13:54:59;20.80;28.20
2543;DHT22;1116;51.502;7.414;2023-10-09T13:57:42;21.30;28.80
2543;DHT22;1116;51.502;7.414;2023-10-09T14:00:14;20.70;28.40
2543;DHT22;1116;51.502;7.414;2023-10-09T14:03:03;20.80;28.80
2543;DHT22;1116;51.502;7.414;2023-10-09T14:05:39;20.80;27.80
2543;DHT22;1116;51.502;7.414;2023-10-09T14:08:20;20.80;27.70
2543;DHT22;1116;51.502;7.414;2023-10-09T14:10:53;20.80;28.60
2543;DHT22;1116;51.502;7.414;2023-10-09T14:13:23;20.80;28.50
2543;DHT22;1116;51.502;7.414;2023-10-09T14:15:56;20.80;28.20
2543;DHT22;1116;51.502;7.414;2023-10-09T14:18:31;20.80;28.30
2543;DHT22;1116;51.502;7.414;2023-10-09T14:21:05;20.80;27.90
2543;DHT22;1116;51.502;7.414;2023-10-09T14:23:43;20.80;28.30
2543;DHT22;1116;51.502;7.414;2023-10-09T14:26:14;20.80;27.50
2543;DHT22;1116;51.502;7.414;2023-10-09T14:28:45;20.70;28.40
2543;DHT22;1116;51.502;7.414;2023-10-09T14:31:15;20.80;28.80
2543;DHT22;1116;51.502;7.414;2023-10-09T14:33:52;20.80;28.90
2543;DHT22;1116;51.502;7.414;2023-10-09T14:36:23;20.90;28.50
2543;DHT22;1116;51.502;7.414;2023-10-09T14:39:01;20.80;28.30
2543;DHT22;1116;51.502;7.414;2023-10-09T14:41:31;21.20;28.90
2543;DHT22;1116;51.502;7.414;2023-10-09T14:44:02;20.80;28.40
2543;DHT22;1116;51.502;7.414;2023-10-09T14:46:32;20.80;27.90
2543;DHT22;1116;51.502;7.414;2023-10-09T14:49:08;20.80;28.50
2543;DHT22;1116;51.502;7.414;2023-10-09T14:51:43;20.80;28.90
2543;DHT22;1116;51.502;7.414;2023-10-09T14:54:14;20.80;28.70
2543;DHT22;1116;51.502;7.414;2023-10-09T14:56:45;20.60;28.80
2543;DHT22;1116;51.502;7.414;2023-10-09T14:59:17;20.60;29.60
2543;DHT22;1116;51.502;7.414;2023-10-09T15:01:49;20.70;29.30
2543;DHT22;1116;51.502;7.414;2023-10-09T15:04:27;20.70;29.30
2543;DHT22;1116;51.502;7.414;2023-10-09T15:06:56;20.70;29.40
2543;DHT22;1116;51.502;7.414;2023-10-09T15:09:28;20.70;29.10
2543;DHT22;1116;51.502;7.414;2023-10-09T15:12:04;20.60;30.00
2543;DHT22;1116;51.502;7.414;2023-10-09T15:14:34;20.60;29.10
2543;DHT22;1116;51.502;7.414;2023-10-09T15:17:06;20.70;29.50
2543;DHT22;1116;51.502;7.414;2023-10-09T15:19:40;20.70;29.10
2543;DHT22;1116;51.502;7.414;2023-10-09T15:22:12;20.70;28.50
2543;DHT22;1116;51.502;7.414;2023-10-09T15:24:45;20.60;29.50
2543;DHT22;1116;51.502;7.414;2023-10-09T15:27:15;20.60;29.40
2543;DHT22;1116;51.502;7.414;2023-10-09T15:29:45;20.50;30.20
2543;DHT22;1116;51.502;7.414;2023-10-09T15:39:19;20.60;30.40
2543;DHT22;1116;51.502;7.414;2023-10-09T15:41:50;20.50;30.30
2543;DHT22;1116;51.502;7.414;2023-10-09T15:44:20;20.60;30.40
2543;DHT22;1116;51.502;7.414;2023-10-09T15:47:00;20.50;30.20
2543;DHT22;1116;51.502;7.414;2023-10-09T15:49:36;20.50;31.00
2543;DHT22;1116;51.502;7.414;2023-10-09T15:52:11;20.50;30.30
2543;DHT22;1116;51.502;7.414;2023-10-09T15:54:44;20.40;30.20
2543;DHT22;1116;51.502;7.414;2023-10-09T15:57:14;20.40;30.80
2543;DHT22;1116;51.502;7.414;2023-10-09T15:59:45;20.40;31.20
2543;DHT22;1116;51.502;7.414;2023-10-09T16:02:15;20.40;30.80
2543;DHT22;1116;51.502;7.414;2023-10-09T16:04:46;20.40;31.90
2543;DHT22;1116;51.502;7.414;2023-10-09T16:07:16;20.50;31.70
2543;DHT22;1116;51.502;7.414;2023-10-09T16:09:49;20.40;31.50
2543;DHT22;1116;51.502;7.414;2023-10-09T16:12:19;20.60;32.30
2543;DHT22;1116;51.502;7.414;2023-10-09T16:14:50;20.40;32.30
2543;DHT22;1116;51.502;7.414;2023-10-09T16:17:21;20.50;32.70
2543;DHT22;1116;51.502;7.414;2023-10-09T16:19:52;20.40;32.40
2543;DHT22;1116;51.502;7.414;2023-10-09T16:22:22;20.60;32.60
2543;DHT22;1116;51.502;7.414;2023-10-09T16:24:55;20.40;32.60
2543;DHT22;1116;51.502;7.414;2023-10-09T16:27:26;20.30;32.40
2543;DHT22;1116;51.502;7.414;2023-10-09T16:29:58;20.30;32.90
2543;DHT22;1116;51.502;7.414;2023-10-09T16:32:32;20.30;32.90
2543;DHT22;1116;51.502;7.414;2023-10-09T16:35:06;20.30;33.10
2543;DHT22;1116;51.502;7.414;2023-10-09T16:37:37;20.30;32.60
2543;DHT22;1116;51.502;7.414;2023-10-09T16:40:11;20.30;32.70
2543;DHT22;1116;51.502;7.414;2023-10-09T16:42:41;20.30;33.10
2543;DHT22;1116;51.502;7.414;2023-10-09T16:45:11;20.20;33.60
2543;DHT22;1116;51.502;7.414;2023-10-09T16:47:45;20.20;33.80
2543;DHT22;1116;51.502;7.414;2023-10-09T16:50:15;20.20;33.70
2543;DHT22;1116;51.502;7.414;2023-10-09T16:52:46;20.20;34.00
2543;DHT22;1116;51.502;7.414;2023-10-09T16:55:20;20.10;34.20
2543;DHT22;1116;51.502;7.414;2023-10-09T16:57:51;20.10;34.70
2543;DHT22;1116;51.502;7.414;2023-10-09T17:00:23;20.00;35.10
2543;DHT22;1116;51.502;7.414;2023-10-09T17:03:03;20.10;35.30
2543;DHT22;1116;51.502;7.414;2023-10-09T17:05:35;20.00;35.30
2543;DHT22;1116;51.502;7.414;2023-10-09T17:08:22;20.00;35.60
2543;DHT22;1116;51.502;7.414;2023-10-09T17:10:59;19.90;36.20
2543;DHT22;1116;51.502;7.414;2023-10-09T17:13:33;19.90;37.00